»·PEaware :: PACER38 KPHX-KONT

PACER38 :: KPHX-KONT

FLIGHT INFORMATION

Flight Status: Arrived
Operator: Unknown
More flights by this operator :: More flights under this callsign
Pilot: Brian Winney (2822)
Aircraft: NORTHROP T-38 AT-38 TALON
(T38)
More flights by this aircraft type
Origin: KPHX Phoenix Sky Harbor Intl
United States
Destination: KONT Ontario Intl
United States
More flights between these airports :: More routes between these airports
Route: +BXK4 PSP SETER4
File this flight plan on PilotEdge
Remarks:
Altitude:
(Current/Filed)
26,000ft
Speed:
(Current/Filed)
545kts
Departed: 04-Jan-17 09:43 AM
Arrived: 04-Jan-17 10:26 AM
Distance/Time
Traveled:
282nm/0:43
Distance/Time
To Go:
Arrived

Flight Plot

Page will automatically refresh every two minutes.

Flight plan parsing failed; only flown route is shown


Map Options




Map Legend


Flown Route
Filed Route
Departure Airport
Arrival Airport
Navaid (VOR, NDB)
Fix

Horizontal Profiles

Position Reports

Time Latitude Longitude Heading Altitude Ground
Speed
04-Jan-17 09:21 33.427209 -112.011370 359 1138ft 0kts
04-Jan-17 09:22 33.427211 -112.011370 359 1138ft 0kts
04-Jan-17 09:23 33.427212 -112.011370 359 1138ft 0kts
04-Jan-17 09:24 33.427214 -112.011370 359 1138ft 0kts
04-Jan-17 09:25 33.427216 -112.011370 359 1138ft 0kts
04-Jan-17 09:26 33.427218 -112.011370 359 1138ft 0kts
04-Jan-17 09:27 33.427219 -112.011370 359 1138ft 0kts
04-Jan-17 09:28 33.427221 -112.011370 359 1138ft 0kts
04-Jan-17 09:29 33.427223 -112.011370 359 1138ft 0kts
04-Jan-17 09:30 33.427225 -112.011370 359 1138ft 0kts
04-Jan-17 09:31 33.427227 -112.011370 359 1138ft 0kts
04-Jan-17 09:32 33.427229 -112.011370 359 1138ft 0kts
04-Jan-17 09:33 33.427231 -112.011370 359 1138ft 0kts
04-Jan-17 09:34 33.427232 -112.011370 359 1138ft 0kts
04-Jan-17 09:35 33.427739 -112.012466 269 1138ft 7kts
04-Jan-17 09:36 33.427740 -112.015171 270 1138ft 9kts
04-Jan-17 09:37 33.427741 -112.018376 270 1138ft 10kts
04-Jan-17 09:38 33.427742 -112.021911 270 1138ft 10kts
04-Jan-17 09:39 33.427739 -112.025643 269 1138ft 11kts
04-Jan-17 09:40 33.428012 -112.026980 346 1138ft 0kts
04-Jan-17 09:41 33.428013 -112.026980 346 1138ft 0kts
04-Jan-17 09:42 33.428821 -112.026733 89 1138ft 3kts
04-Jan-17 09:43 33.428809 -111.982817 87 1588ft 281kts
04-Jan-17 09:44 33.442950 -111.884918 79 4079ft 308kts
04-Jan-17 09:45 33.412717 -111.795025 150 7152ft 311kts
04-Jan-17 09:46 33.354083 -111.843383 271 10124ft 313kts
04-Jan-17 09:47 33.364225 -111.953046 277 12575ft 352kts
04-Jan-17 09:48 33.376276 -112.075235 277 15383ft 386kts
04-Jan-17 09:49 33.389410 -112.211642 275 17697ft 436kts
04-Jan-17 09:50 33.403223 -112.361311 276 20283ft 464kts
04-Jan-17 09:51 33.418191 -112.516357 276 23294ft 471kts
04-Jan-17 09:52 33.434053 -112.672892 277 25921ft 482kts
04-Jan-17 09:53 33.453205 -112.839193 279 25992ft 520kts
04-Jan-17 09:54 33.486634 -113.010691 284 25996ft 538kts
04-Jan-17 09:55 33.522843 -113.186550 283 26041ft 546kts
04-Jan-17 09:56 33.557543 -113.363296 283 25999ft 543kts
04-Jan-17 09:57 33.592895 -113.538941 283 26001ft 542kts
04-Jan-17 09:58 33.628718 -113.714432 283 25980ft 543kts
04-Jan-17 09:59 33.664156 -113.890215 282 25974ft 542kts
04-Jan-17 10:00 33.694324 -114.067907 281 25998ft 542kts
04-Jan-17 10:01 33.726036 -114.244882 281 26002ft 542kts
04-Jan-17 10:02 33.758334 -114.421765 282 26019ft 543kts
04-Jan-17 10:03 33.791016 -114.598743 282 26033ft 543kts
04-Jan-17 10:04 33.824219 -114.776408 282 26006ft 544kts
04-Jan-17 10:05 33.857768 -114.953700 282 25999ft 544kts
04-Jan-17 10:06 33.891741 -115.130934 283 26016ft 544kts
04-Jan-17 10:07 33.922104 -115.308972 273 26016ft 544kts
04-Jan-17 10:08 33.916365 -115.490643 266 26029ft 544kts
04-Jan-17 10:09 33.909247 -115.673300 267 25999ft 545kts
04-Jan-17 10:10 33.902968 -115.856432 267 25075ft 554kts
04-Jan-17 10:11 33.893897 -116.040718 266 24057ft 552kts
04-Jan-17 10:12 33.884567 -116.224124 266 21556ft 536kts
04-Jan-17 10:13 33.875177 -116.396409 266 18881ft 494kts
04-Jan-17 10:14 33.877151 -116.559751 273 16601ft 489kts
04-Jan-17 10:15 33.883251 -116.721124 272 14483ft 478kts
04-Jan-17 10:16 33.889340 -116.877446 281 12178ft 462kts
04-Jan-17 10:17 33.948711 -117.006280 302 9846ft 351kts
04-Jan-17 10:18 33.996505 -117.094714 303 8284ft 309kts
04-Jan-17 10:19 34.045209 -117.179908 305 7195ft 307kts
04-Jan-17 10:20 34.055378 -117.278249 270 5605ft 283kts
04-Jan-17 10:21 34.054765 -117.355164 269 4370ft 184kts
04-Jan-17 10:22 34.055210 -117.412603 269 3606ft 166kts
04-Jan-17 10:23 34.054740 -117.469571 269 2829ft 176kts
04-Jan-17 10:24 34.054861 -117.528203 270 1854ft 165kts
04-Jan-17 10:25 34.055004 -117.582993 269 961ft 164kts
04-Jan-17 10:26 34.054500 -117.604235 136 948ft 7kts
04-Jan-17 10:27 34.054181 -117.603874 136 948ft 4kts
04-Jan-17 10:28 34.053086 -117.603827 268 948ft 0kts
04-Jan-17 10:29 34.053086 -117.603829 268 948ft 0kts

Navigation Log

Ident Type Via Name
Flight plan parsing failed, navigation log unavailable